createdAt,value
2018-09-13T00:00:19.843Z,1.00
2018-09-13T00:02:48.000Z,1.50
2018-09-13T00:05:16.606Z,2.00
2018-09-13T00:07:44.711Z,1.37
2018-09-13T00:10:12.937Z,2.67
2018-09-13T00:12:41.986Z,2.90
2018-09-13T00:15:10.813Z,2.20
2018-09-13T00:17:38.941Z,1.97
2018-09-13T00:20:07.020Z,1.63
2018-09-13T00:22:35.274Z,1.27
2018-09-13T00:25:03.501Z,1.67
2018-09-13T00:27:33.208Z,2.40
2018-09-13T00:30:01.450Z,5.80
2018-09-13T00:32:29.583Z,1.97
2018-09-13T00:34:57.919Z,2.33
2018-09-13T00:37:26.006Z,2.10
2018-09-13T00:39:54.360Z,1.90
2018-09-13T00:42:22.460Z,1.50
2018-09-13T00:44:50.735Z,2.07
2018-09-13T00:47:19.382Z,2.60
2018-09-13T00:49:49.712Z,1.40
2018-09-13T00:52:18.575Z,1.13
2018-09-13T00:54:47.878Z,3.60
2018-09-13T00:57:16.248Z,1.10
2018-09-13T00:59:44.356Z,2.30
2018-09-13T01:02:13.236Z,2.63
2018-09-13T01:04:41.323Z,1.60
2018-09-13T01:07:10.749Z,1.73
2018-09-13T01:09:40.921Z,2.80
2018-09-13T01:12:09.323Z,2.07
2018-09-13T01:14:38.516Z,2.43
2018-09-13T01:17:07.899Z,2.60
2018-09-13T01:19:36.086Z,4.20
2018-09-13T01:22:04.183Z,1.07
2018-09-13T01:24:32.267Z,1.00
2018-09-13T01:27:00.376Z,1.00
2018-09-13T01:29:28.492Z,4.40
2018-09-13T01:31:56.884Z,3.33
2018-09-13T01:34:24.961Z,3.10
2018-09-13T01:36:53.638Z,3.87
2018-09-13T01:39:21.831Z,3.20
2018-09-13T01:41:50.264Z,3.53
2018-09-13T01:44:19.023Z,1.03
2018-09-13T01:46:47.309Z,1.63
2018-09-13T01:49:15.384Z,1.83
2018-09-13T01:51:43.482Z,2.67
2018-09-13T01:54:11.576Z,2.30
2018-09-13T01:56:39.648Z,1.17
2018-09-13T01:59:07.755Z,2.30
2018-09-13T02:01:35.851Z,2.67
2018-09-13T02:04:03.982Z,3.07
2018-09-13T02:06:32.093Z,2.10
2018-09-13T02:09:00.184Z,1.70
2018-09-13T02:11:28.259Z,1.47
2018-09-13T02:13:56.356Z,1.67
2018-09-13T02:16:24.424Z,3.30
2018-09-13T02:18:52.638Z,2.10
2018-09-13T02:21:20.714Z,0.80
2018-09-13T02:23:48.791Z,1.13
2018-09-13T02:26:16.871Z,2.13
2018-09-13T02:28:44.987Z,1.23
2018-09-13T02:31:13.304Z,1.53
2018-09-13T02:33:41.406Z,1.03
2018-09-13T02:36:09.510Z,1.17
2018-09-13T02:38:37.592Z,1.43
2018-09-13T02:41:05.711Z,3.33
2018-09-13T02:43:33.792Z,1.33
2018-09-13T02:46:01.885Z,2.33
2018-09-13T02:48:29.983Z,1.23
2018-09-13T02:50:58.090Z,2.57
2018-09-13T02:53:26.184Z,0.80
2018-09-13T02:55:54.262Z,1.20
2018-09-13T02:58:22.363Z,2.17
2018-09-13T03:00:50.779Z,0.97
2018-09-13T03:03:18.875Z,3.37
2018-09-13T03:05:47.124Z,1.07
2018-09-13T03:08:15.265Z,2.63
2018-09-13T03:10:43.319Z,1.13
2018-09-13T03:13:11.443Z,1.17
2018-09-13T03:15:39.536Z,1.47
2018-09-13T03:18:07.714Z,2.47
2018-09-13T03:20:35.802Z,0.73
2018-09-13T03:23:04.144Z,2.83
2018-09-13T03:25:32.386Z,1.60
2018-09-13T03:28:00.520Z,3.10
2018-09-13T03:30:28.719Z,1.90
2018-09-13T03:32:56.996Z,1.00
2018-09-13T03:35:25.319Z,1.03
2018-09-13T03:37:53.712Z,1.97
2018-09-13T03:40:21.803Z,2.97
2018-09-13T03:42:49.915Z,3.97
2018-09-13T03:45:18.003Z,1.80
2018-09-13T03:47:46.078Z,1.63
2018-09-13T03:50:14.204Z,0.93
2018-09-13T03:52:42.281Z,1.57
2018-09-13T03:55:10.398Z,1.53
2018-09-13T03:57:38.504Z,3.20
2018-09-13T04:00:06.947Z,1.57
2018-09-13T04:02:35.027Z,1.87
2018-09-13T04:05:03.140Z,1.63
2018-09-13T04:07:31.264Z,1.50
2018-09-13T04:09:59.359Z,1.57
2018-09-13T04:12:27.466Z,1.13
2018-09-13T04:14:55.580Z,1.43
2018-09-13T04:17:23.732Z,2.93
2018-09-13T04:19:52.036Z,1.53
2018-09-13T04:22:20.123Z,2.23
2018-09-13T04:24:48.235Z,1.13
2018-09-13T04:27:16.323Z,2.07
2018-09-13T04:29:44.420Z,3.77
2018-09-13T04:32:12.693Z,1.37
2018-09-13T04:34:40.812Z,1.70
2018-09-13T04:37:09.291Z,1.60
2018-09-13T04:39:37.379Z,4.27
2018-09-13T04:42:05.486Z,1.10
2018-09-13T04:44:33.629Z,3.53
2018-09-13T04:47:01.712Z,2.07
2018-09-13T04:49:29.809Z,2.47
2018-09-13T04:51:57.914Z,5.00
2018-09-13T04:54:26.131Z,4.63
2018-09-13T04:56:54.233Z,3.57
2018-09-13T04:59:22.298Z,7.00
2018-09-13T05:01:50.423Z,3.77
2018-09-13T05:04:18.536Z,8.30
2018-09-13T05:06:46.624Z,10.17
2018-09-13T05:09:14.956Z,2.27
2018-09-13T05:11:43.043Z,2.60
2018-09-13T05:14:11.138Z,8.60
2018-09-13T05:16:39.251Z,6.87
2018-09-13T05:19:08.535Z,2.73
2018-09-13T05:21:36.613Z,3.23
2018-09-13T05:24:05.792Z,3.20
2018-09-13T05:26:33.882Z,9.90
2018-09-13T05:29:02.036Z,4.87
2018-09-13T05:31:30.176Z,9.43
2018-09-13T05:33:58.249Z,6.73
2018-09-13T05:36:26.867Z,9.77
2018-09-13T05:38:55.867Z,20.60
2018-09-13T05:41:23.893Z,18.40
2018-09-13T05:43:51.966Z,30.50
2018-09-13T05:46:20.077Z,29.27
2018-09-13T05:48:49.171Z,30.13
2018-09-13T05:51:17.458Z,13.03
2018-09-13T05:53:45.492Z,11.67
2018-09-13T05:56:20.591Z,12.03
2018-09-13T05:58:48.719Z,13.40
2018-09-13T06:01:16.851Z,10.83
2018-09-13T06:03:51.663Z,13.73
2018-09-13T06:06:22.399Z,6.50
2018-09-13T06:08:50.827Z,8.83
2018-09-13T06:11:19.010Z,11.20
2018-09-13T06:13:47.086Z,6.30
2018-09-13T06:16:15.178Z,6.53
2018-09-13T06:18:43.275Z,13.93
2018-09-13T06:21:11.546Z,8.23
2018-09-13T06:23:39.636Z,7.13
2018-09-13T06:26:07.722Z,5.80
2018-09-13T06:28:35.872Z,6.67
2018-09-13T06:31:03.939Z,5.70
2018-09-13T06:33:32.016Z,6.23
2018-09-13T06:36:00.086Z,5.33
2018-09-13T06:38:28.320Z,2.67
2018-09-13T06:40:56.283Z,4.20
2018-09-13T06:43:24.612Z,3.43
2018-09-13T06:45:52.714Z,3.73
2018-09-13T06:48:20.837Z,6.40
2018-09-13T06:50:48.923Z,4.73
2018-09-13T06:53:17.028Z,8.90
2018-09-13T06:55:45.106Z,8.13
2018-09-13T06:58:13.197Z,5.80
2018-09-13T07:00:41.284Z,6.47
2018-09-13T07:03:09.361Z,4.60
2018-09-13T07:05:37.458Z,5.13
2018-09-13T07:08:05.722Z,3.97
2018-09-13T07:10:33.840Z,6.17
2018-09-13T07:13:01.932Z,5.10
2018-09-13T07:15:30.115Z,3.80
2018-09-13T07:17:58.246Z,4.83
2018-09-13T07:20:26.320Z,3.33
2018-09-13T07:22:54.448Z,3.30
2018-09-13T07:25:22.578Z,4.47
2018-09-13T07:27:50.756Z,4.53
2018-09-13T07:30:18.827Z,2.80
2018-09-13T07:32:46.913Z,2.27
2018-09-13T07:35:15.002Z,3.87
2018-09-13T07:37:43.078Z,3.23
2018-09-13T07:40:11.187Z,4.60
2018-09-13T07:42:39.459Z,3.10
2018-09-13T07:45:07.560Z,3.67
2018-09-13T07:47:35.659Z,6.70
2018-09-13T07:50:03.745Z,1.83
2018-09-13T07:52:31.818Z,3.67
2018-09-13T07:54:59.926Z,3.40
2018-09-13T07:57:28.060Z,2.63
2018-09-13T07:59:56.123Z,3.10
2018-09-13T08:02:24.273Z,2.07
2018-09-13T08:04:52.464Z,2.17
2018-09-13T08:07:20.554Z,3.50
2018-09-13T08:09:48.666Z,2.87
2018-09-13T08:12:16.809Z,3.23
2018-09-13T08:14:45.117Z,2.77
2018-09-13T08:17:13.210Z,4.07
2018-09-13T08:19:41.284Z,3.47
2018-09-13T08:22:09.514Z,1.53
2018-09-13T08:24:37.507Z,3.67
2018-09-13T08:27:06.174Z,2.27
2018-09-13T08:29:34.263Z,2.87
2018-09-13T08:32:02.375Z,1.73
2018-09-13T08:34:30.481Z,4.10
2018-09-13T08:36:58.535Z,2.33
2018-09-13T08:39:26.602Z,3.53
2018-09-13T08:41:54.710Z,1.80
2018-09-13T08:44:22.829Z,2.90
2018-09-13T08:46:50.923Z,1.77
2018-09-13T08:49:19.016Z,1.17
2018-09-13T08:51:47.309Z,4.70
2018-09-13T08:54:15.471Z,2.47
2018-09-13T08:56:43.742Z,2.10
2018-09-13T08:59:11.862Z,2.57
2018-09-13T09:01:39.974Z,2.50
2018-09-13T09:04:08.612Z,1.67
2018-09-13T09:06:36.825Z,2.13
2018-09-13T09:09:08.114Z,3.10
2018-09-13T09:11:36.201Z,4.10
2018-09-13T09:14:04.300Z,4.27
2018-09-13T09:16:32.391Z,2.90
2018-09-13T09:19:00.491Z,2.13
2018-09-13T09:21:30.139Z,3.13
2018-09-13T09:23:58.498Z,2.67
2018-09-13T09:26:26.595Z,1.57
2018-09-13T09:28:57.810Z,1.53
2018-09-13T09:31:26.837Z,3.40
2018-09-13T09:33:54.960Z,1.50
2018-09-13T09:36:23.048Z,2.50
2018-09-13T09:38:51.142Z,3.77
2018-09-13T09:41:19.216Z,3.33
2018-09-13T09:43:47.314Z,1.57
2018-09-13T09:46:15.397Z,2.07
2018-09-13T09:48:43.558Z,1.27
2018-09-13T09:51:11.645Z,2.30
2018-09-13T09:53:39.904Z,2.53
2018-09-13T09:56:08.104Z,1.93
2018-09-13T09:58:37.061Z,1.93
2018-09-13T10:01:10.707Z,2.97
2018-09-13T10:03:38.823Z,2.23
2018-09-13T10:06:07.334Z,1.47
2018-09-13T10:08:35.521Z,2.10
2018-09-13T10:11:03.603Z,2.03
2018-09-13T10:13:31.723Z,1.60
2018-09-13T10:16:05.340Z,2.70
2018-09-13T10:18:38.919Z,2.30
2018-09-13T10:21:12.551Z,0.90
2018-09-13T10:23:46.147Z,1.30
2018-09-13T10:26:19.559Z,1.23
2018-09-13T10:28:53.063Z,1.37
2018-09-13T10:31:26.866Z,2.10
2018-09-13T10:34:00.565Z,2.13
2018-09-13T10:36:34.180Z,1.13
2018-09-13T10:39:07.776Z,3.70
2018-09-13T10:41:41.236Z,1.67
2018-09-13T10:44:14.653Z,1.60
2018-09-13T10:46:42.729Z,1.77
2018-09-13T10:49:16.030Z,2.73
2018-09-13T10:51:49.493Z,1.60
2018-09-13T10:54:24.905Z,1.60
2018-09-13T10:56:52.978Z,0.93
2018-09-13T10:59:21.082Z,1.43
2018-09-13T11:01:49.186Z,2.43
2018-09-13T11:04:17.307Z,1.47
2018-09-13T11:06:45.430Z,1.83
2018-09-13T11:09:14.613Z,1.33
2018-09-13T11:11:43.411Z,1.40
2018-09-13T11:14:19.379Z,2.40
2018-09-13T11:16:47.490Z,1.23
2018-09-13T11:19:15.802Z,1.87
2018-09-13T11:21:44.233Z,1.33
2018-09-13T11:24:12.279Z,1.70
2018-09-13T11:26:40.359Z,1.90
2018-09-13T11:29:08.454Z,5.10
2018-09-13T11:31:36.551Z,7.77
2018-09-13T11:34:04.659Z,7.03
2018-09-13T11:36:32.767Z,3.83
2018-09-13T11:39:00.864Z,4.70
2018-09-13T11:41:28.965Z,5.07
2018-09-13T11:43:57.051Z,5.83
2018-09-13T11:46:25.164Z,6.50
2018-09-13T11:48:53.260Z,10.53
2018-09-13T11:51:22.942Z,4.33
2018-09-13T11:53:52.077Z,5.33
2018-09-13T11:56:20.471Z,12.70
2018-09-13T11:58:48.807Z,7.10
2018-09-13T12:01:16.998Z,5.03
2018-09-13T12:03:45.063Z,5.93
2018-09-13T12:06:13.218Z,8.57
2018-09-13T12:08:41.502Z,8.50
2018-09-13T12:11:09.600Z,5.17
2018-09-13T12:13:37.742Z,11.17
2018-09-13T12:16:05.946Z,9.10
2018-09-13T12:18:34.120Z,3.70
2018-09-13T12:21:02.231Z,6.93
2018-09-13T12:23:30.327Z,9.97
2018-09-13T12:25:58.415Z,13.60
2018-09-13T12:28:26.765Z,7.13
2018-09-13T12:30:54.869Z,16.23
2018-09-13T12:33:22.984Z,13.00
2018-09-13T12:35:51.116Z,12.77
2018-09-13T12:38:19.214Z,20.13
2018-09-13T12:40:47.417Z,15.40
2018-09-13T12:43:15.537Z,15.07
2018-09-13T12:45:43.631Z,6.77
2018-09-13T12:48:11.820Z,6.90
2018-09-13T12:50:39.974Z,11.57
2018-09-13T12:53:08.171Z,6.40
2018-09-13T12:55:41.723Z,10.27
2018-09-13T12:58:09.815Z,10.43
2018-09-13T13:00:38.012Z,11.20
2018-09-13T13:03:06.218Z,10.30
2018-09-13T13:05:34.340Z,7.57
2018-09-13T13:08:02.496Z,10.03
2018-09-13T13:10:30.651Z,13.53
2018-09-13T13:12:58.745Z,5.63
2018-09-13T13:15:26.855Z,9.57
2018-09-13T13:17:55.107Z,9.03
2018-09-13T13:20:23.218Z,6.43
2018-09-13T13:22:51.350Z,7.30
2018-09-13T13:25:19.534Z,6.20
2018-09-13T13:27:48.657Z,8.70
2018-09-13T13:30:16.936Z,13.60
2018-09-13T13:32:45.275Z,8.13
2018-09-13T13:35:13.678Z,8.13
2018-09-13T13:37:41.888Z,6.03
2018-09-13T13:40:10.012Z,9.77
2018-09-13T13:42:38.121Z,14.13
2018-09-13T13:45:06.328Z,6.53
2018-09-13T13:47:34.555Z,4.33
2018-09-13T13:50:02.667Z,10.53
2018-09-13T13:52:30.808Z,11.97
2018-09-13T13:54:58.904Z,11.60
2018-09-13T13:57:26.999Z,8.60
2018-09-13T13:59:55.121Z,8.20
2018-09-13T14:02:23.291Z,13.70
2018-09-13T14:04:51.390Z,9.10
2018-09-13T14:07:19.491Z,9.60
2018-09-13T14:09:47.689Z,5.97
2018-09-13T14:12:21.636Z,11.53
2018-09-13T14:14:49.744Z,5.50
2018-09-13T14:17:17.810Z,8.07
2018-09-13T14:19:45.960Z,6.00
2018-09-13T14:22:14.043Z,5.27
2018-09-13T14:24:42.122Z,6.60
2018-09-13T14:27:10.175Z,7.80
2018-09-13T14:29:38.244Z,9.87
2018-09-13T14:32:06.334Z,4.73
2018-09-13T14:34:34.662Z,4.33
2018-09-13T14:37:02.726Z,6.07
2018-09-13T14:39:30.786Z,4.93
2018-09-13T14:41:58.873Z,4.37
2018-09-13T14:44:26.923Z,7.47
2018-09-13T14:46:55.002Z,4.20
2018-09-13T14:49:23.329Z,4.47
2018-09-13T14:51:51.517Z,6.20
2018-09-13T14:54:19.603Z,5.67
2018-09-13T14:56:47.691Z,4.30
2018-09-13T14:59:15.763Z,4.30
2018-09-13T15:01:43.834Z,7.63
2018-09-13T15:04:11.920Z,4.63
2018-09-13T15:06:39.983Z,3.37
2018-09-13T15:09:10.099Z,5.70
2018-09-13T15:11:38.170Z,4.23
2018-09-13T15:14:06.238Z,5.97
2018-09-13T15:16:34.323Z,4.00
2018-09-13T15:19:02.385Z,6.90
2018-09-13T15:21:30.718Z,5.93
2018-09-13T15:23:58.795Z,5.83
2018-09-13T15:26:26.878Z,3.43
2018-09-13T15:28:55.046Z,5.93
2018-09-13T15:31:23.135Z,6.77
2018-09-13T15:33:51.150Z,6.93
2018-09-13T15:36:19.230Z,8.27
2018-09-13T15:38:47.591Z,8.70
2018-09-13T15:41:15.735Z,7.47
2018-09-13T15:43:43.822Z,4.67
2018-09-13T15:46:11.925Z,3.37
2018-09-13T15:48:39.979Z,5.70
2018-09-13T15:51:08.279Z,5.17
2018-09-13T15:53:36.298Z,3.87
2018-09-13T15:56:04.370Z,3.10
2018-09-13T15:58:32.426Z,9.23
2018-09-13T16:01:00.523Z,4.47
2018-09-13T16:03:28.582Z,4.63
2018-09-13T16:05:56.630Z,5.37
2018-09-13T16:08:24.691Z,4.67
2018-09-13T16:10:52.747Z,3.43
2018-09-13T16:13:20.804Z,4.10
2018-09-13T16:15:48.879Z,5.03
2018-09-13T16:18:16.944Z,5.23
2018-09-13T16:20:45.033Z,6.17
2018-09-13T16:23:13.340Z,8.17
2018-09-13T16:25:41.916Z,3.40
2018-09-13T16:28:10.019Z,6.80
2018-09-13T16:30:38.323Z,3.53
2018-09-13T16:33:06.566Z,9.90
2018-09-13T16:35:35.397Z,4.80
2018-09-13T16:38:09.108Z,4.20
2018-09-13T16:40:42.687Z,8.90
2018-09-13T16:43:13.491Z,8.50
2018-09-13T16:45:41.558Z,4.33
2018-09-13T16:48:09.622Z,4.80
2018-09-13T16:50:37.939Z,6.33
2018-09-13T16:53:06.066Z,13.13
2018-09-13T16:55:34.071Z,13.93
2018-09-13T16:58:02.138Z,7.83
2018-09-13T17:00:30.199Z,10.17
2018-09-13T17:02:58.263Z,9.73
2018-09-13T17:05:26.333Z,8.73
2018-09-13T17:07:54.409Z,7.23
2018-09-13T17:10:22.813Z,7.93
2018-09-13T17:12:50.870Z,6.47
2018-09-13T17:15:19.044Z,9.43
2018-09-13T17:17:47.103Z,12.10
2018-09-13T17:20:15.268Z,11.53
2018-09-13T17:22:43.297Z,8.30
2018-09-13T17:25:11.358Z,7.60
2018-09-13T17:27:39.418Z,11.87
2018-09-13T17:30:07.746Z,11.17
2018-09-13T17:32:35.794Z,10.60
2018-09-13T17:35:03.855Z,9.13
2018-09-13T17:37:31.918Z,11.30
2018-09-13T17:39:59.974Z,5.30
2018-09-13T17:42:28.032Z,6.90
2018-09-13T17:44:56.399Z,8.77
2018-09-13T17:47:24.786Z,7.27
2018-09-13T17:49:52.834Z,7.73
2018-09-13T17:52:20.876Z,6.23
2018-09-13T17:54:48.962Z,7.17
2018-09-13T17:57:17.030Z,12.83
2018-09-13T17:59:45.111Z,11.73
2018-09-13T18:02:13.155Z,7.40
2018-09-13T18:04:41.238Z,8.17
2018-09-13T18:07:09.799Z,6.40
2018-09-13T18:09:37.886Z,12.47
2018-09-13T18:12:06.283Z,6.70
2018-09-13T18:14:34.486Z,8.63
2018-09-13T18:17:02.627Z,5.47
2018-09-13T18:19:30.691Z,8.97
2018-09-13T18:21:59.006Z,9.23
2018-09-13T18:24:27.090Z,6.57
2018-09-13T18:26:55.159Z,7.47
2018-09-13T18:29:23.222Z,8.27
2018-09-13T18:31:51.271Z,7.40
2018-09-13T18:34:19.335Z,5.97
2018-09-13T18:36:47.387Z,4.67
2018-09-13T18:39:15.474Z,7.23
2018-09-13T18:41:43.520Z,6.13
2018-09-13T18:44:11.852Z,9.73
2018-09-13T18:46:39.914Z,5.57
2018-09-13T18:49:08.305Z,9.03
2018-09-13T18:51:36.367Z,8.77
2018-09-13T18:54:04.478Z,13.77
2018-09-13T18:56:32.502Z,9.50
2018-09-13T18:59:00.552Z,6.43
2018-09-13T19:01:28.638Z,14.60
2018-09-13T19:03:56.678Z,9.83
2018-09-13T19:06:24.764Z,10.47
2018-09-13T19:08:52.994Z,8.60
2018-09-13T19:11:21.403Z,6.10
2018-09-13T19:13:49.458Z,10.77
2018-09-13T19:16:17.526Z,5.03
2018-09-13T19:18:45.855Z,5.83
2018-09-13T19:21:13.946Z,6.53
2018-09-13T19:23:42.035Z,7.63
2018-09-13T19:26:10.211Z,8.37
2018-09-13T19:28:38.270Z,15.10
2018-09-13T19:31:07.090Z,7.67
2018-09-13T19:33:35.161Z,9.80
2018-09-13T19:36:03.214Z,9.03
2018-09-13T19:38:31.383Z,5.50
2018-09-13T19:40:59.425Z,10.38
2018-09-13T19:43:27.499Z,12.03
2018-09-13T19:45:55.719Z,8.07
2018-09-13T19:48:23.775Z,10.73
2018-09-13T19:50:51.917Z,11.67
2018-09-13T19:53:20.274Z,10.53
2018-09-13T19:55:48.350Z,9.13
2018-09-13T19:58:16.418Z,10.63
2018-09-13T20:00:44.479Z,7.73
2018-09-13T20:03:12.530Z,5.20
2018-09-13T20:05:40.591Z,12.07
2018-09-13T20:08:08.659Z,4.43
2018-09-13T20:10:36.735Z,8.40
2018-09-13T20:13:04.778Z,6.33
2018-09-13T20:15:32.846Z,6.63
2018-09-13T20:18:00.903Z,5.77
2018-09-13T20:20:28.974Z,8.00
2018-09-13T20:22:57.063Z,6.10
2018-09-13T20:25:25.126Z,5.27
2018-09-13T20:27:53.497Z,5.00
2018-09-13T20:30:21.571Z,4.27
2018-09-13T20:32:49.622Z,5.63
2018-09-13T20:35:17.718Z,7.20
2018-09-13T20:37:45.763Z,3.37
2018-09-13T20:40:13.817Z,6.40
2018-09-13T20:42:41.953Z,5.40
2018-09-13T20:45:10.175Z,5.27
2018-09-13T20:47:38.238Z,6.93
2018-09-13T20:50:06.425Z,7.57
2018-09-13T20:52:34.481Z,6.87
2018-09-13T20:55:02.571Z,4.53
2018-09-13T20:57:30.645Z,13.30
2018-09-13T20:59:58.706Z,4.87
2018-09-13T21:02:26.790Z,5.13
2018-09-13T21:04:54.842Z,7.37
2018-09-13T21:07:23.198Z,5.87
2018-09-13T21:09:51.250Z,5.57
2018-09-13T21:12:19.338Z,6.97
2018-09-13T21:14:47.432Z,4.67
2018-09-13T21:17:15.826Z,6.20
2018-09-13T21:19:43.891Z,6.30
2018-09-13T21:22:12.250Z,9.50
2018-09-13T21:24:40.326Z,6.30
2018-09-13T21:27:08.670Z,3.60
2018-09-13T21:29:36.866Z,6.33
2018-09-13T21:32:04.945Z,9.87
2018-09-13T21:34:33.003Z,5.70
2018-09-13T21:37:01.066Z,4.43
2018-09-13T21:39:29.118Z,5.27
2018-09-13T21:41:57.721Z,3.20
2018-09-13T21:44:25.829Z,5.17
2018-09-13T21:46:53.842Z,5.57
2018-09-13T21:49:21.899Z,5.97
2018-09-13T21:51:49.971Z,4.63
2018-09-13T21:54:18.050Z,5.00
2018-09-13T21:56:46.099Z,8.67
2018-09-13T21:59:14.274Z,5.50
2018-09-13T22:01:42.334Z,5.60
2018-09-13T22:04:10.660Z,4.83
2018-09-13T22:06:39.038Z,7.20
2018-09-13T22:09:09.502Z,4.63
2018-09-13T22:11:38.764Z,4.33
2018-09-13T22:14:06.823Z,4.53
2018-09-13T22:16:34.886Z,3.90
2018-09-13T22:19:02.942Z,5.87
2018-09-13T22:21:31.014Z,4.23
2018-09-13T22:23:59.104Z,4.90
2018-09-13T22:26:27.218Z,3.63
2018-09-13T22:28:55.310Z,4.60
2018-09-13T22:31:23.405Z,5.67
2018-09-13T22:33:51.458Z,4.43
2018-09-13T22:36:19.543Z,5.53
2018-09-13T22:38:47.603Z,6.50
2018-09-13T22:41:15.936Z,4.43
2018-09-13T22:43:49.542Z,4.70
2018-09-13T22:46:17.607Z,4.80
2018-09-13T22:48:45.667Z,6.10
2018-09-13T22:51:13.731Z,5.50
2018-09-13T22:53:41.799Z,5.00
2018-09-13T22:56:09.870Z,3.60
2018-09-13T22:58:37.933Z,4.97
2018-09-13T23:01:05.999Z,5.23
2018-09-13T23:03:34.063Z,3.70
2018-09-13T23:06:02.123Z,5.70
2018-09-13T23:08:30.182Z,5.60
2018-09-13T23:10:58.493Z,3.37
2018-09-13T23:13:26.573Z,5.53
2018-09-13T23:15:54.665Z,4.40
2018-09-13T23:18:22.703Z,3.53
2018-09-13T23:20:50.759Z,3.43
2018-09-13T23:23:18.994Z,4.03
2018-09-13T23:25:47.074Z,3.93
2018-09-13T23:28:15.155Z,7.17
2018-09-13T23:30:43.295Z,5.00
2018-09-13T23:33:11.498Z,4.10
2018-09-13T23:35:39.574Z,3.17
2018-09-13T23:38:07.639Z,3.30
2018-09-13T23:40:35.772Z,5.13
2018-09-13T23:43:03.751Z,4.20
2018-09-13T23:45:32.040Z,4.40
2018-09-13T23:48:00.406Z,3.67
2018-09-13T23:50:29.051Z,5.57
2018-09-13T23:52:57.116Z,3.93
2018-09-13T23:55:25.170Z,3.23
2018-09-13T23:57:53.486Z,4.33
